Nearby METAR Reports

 

KHQM - Hoquiam,WA, USA
Updated: 07/08/2020 2:53pm
Few Clouds
Few Clouds
 Wind from WSW
Wind: WSW 14 mph , 22 km/h
Temperature: 64°F , 18°C
Dew Point: 55°F , 13°C
Humidity: 73%
Barometer: 30.10 inHg , 1019.3 hPa
Clouds: Few Clouds
Visibility: 10 miles , 16 km
Cloud details: Few Clouds 11000 ft
2020/07/08 21:53 KHQM 082153Z AUTO 25012KT 10SM FEW110 18/13 A3010 RMK AO2 SLP197 T01780128